sensor_id;sensor_type;location;lat;lon;timestamp;P1;durP1;ratioP1;P2;durP2;ratioP2
75297;SDS011;63896;45.990;18.688;2023-09-19T00:01:13;12.30;;;8.13;;
75297;SDS011;63896;45.990;18.688;2023-09-19T00:04:17;13.65;;;8.38;;
75297;SDS011;63896;45.990;18.688;2023-09-19T00:07:22;13.85;;;7.97;;
75297;SDS011;63896;45.990;18.688;2023-09-19T00:10:25;13.18;;;8.18;;
75297;SDS011;63896;45.990;18.688;2023-09-19T00:13:29;13.20;;;8.02;;
75297;SDS011;63896;45.990;18.688;2023-09-19T00:16:33;17.17;;;8.37;;
75297;SDS011;63896;45.990;18.688;2023-09-19T00:19:36;11.60;;;8.35;;
75297;SDS011;63896;45.990;18.688;2023-09-19T00:22:40;14.90;;;7.93;;
75297;SDS011;63896;45.990;18.688;2023-09-19T00:25:47;18.20;;;8.55;;
75297;SDS011;63896;45.990;18.688;2023-09-19T00:28:52;14.30;;;8.07;;
75297;SDS011;63896;45.990;18.688;2023-09-19T00:31:55;11.33;;;8.23;;
75297;SDS011;63896;45.990;18.688;2023-09-19T00:35:01;15.70;;;8.30;;
75297;SDS011;63896;45.990;18.688;2023-09-19T00:38:05;11.57;;;8.40;;
75297;SDS011;63896;45.990;18.688;2023-09-19T00:41:09;15.25;;;8.38;;
75297;SDS011;63896;45.990;18.688;2023-09-19T00:44:12;12.05;;;8.43;;
75297;SDS011;63896;45.990;18.688;2023-09-19T00:47:15;10.63;;;8.40;;
75297;SDS011;63896;45.990;18.688;2023-09-19T00:50:22;13.55;;;8.20;;
75297;SDS011;63896;45.990;18.688;2023-09-19T00:53:31;16.67;;;8.85;;
75297;SDS011;63896;45.990;18.688;2023-09-19T00:56:36;15.93;;;8.57;;
75297;SDS011;63896;45.990;18.688;2023-09-19T00:59:42;13.30;;;8.90;;
75297;SDS011;63896;45.990;18.688;2023-09-19T01:02:46;15.43;;;8.57;;
75297;SDS011;63896;45.990;18.688;2023-09-19T01:05:50;13.75;;;8.77;;
75297;SDS011;63896;45.990;18.688;2023-09-19T01:08:54;15.88;;;8.60;;
75297;SDS011;63896;45.990;18.688;2023-09-19T01:11:58;17.38;;;9.27;;
75297;SDS011;63896;45.990;18.688;2023-09-19T01:15:55;14.70;;;9.02;;
75297;SDS011;63896;45.990;18.688;2023-09-19T01:18:35;14.77;;;8.77;;
75297;SDS011;63896;45.990;18.688;2023-09-19T01:28:15;15.25;;;9.25;;
75297;SDS011;63896;45.990;18.688;2023-09-19T01:31:32;15.75;;;9.05;;
75297;SDS011;63896;45.990;18.688;2023-09-19T01:34:43;12.20;;;8.93;;
75297;SDS011;63896;45.990;18.688;2023-09-19T01:37:52;13.10;;;8.90;;
75297;SDS011;63896;45.990;18.688;2023-09-19T01:41:03;14.18;;;9.07;;
75297;SDS011;63896;45.990;18.688;2023-09-19T01:44:17;14.32;;;8.90;;
75297;SDS011;63896;45.990;18.688;2023-09-19T01:47:32;14.10;;;9.20;;
75297;SDS011;63896;45.990;18.688;2023-09-19T01:50:39;14.07;;;8.70;;
75297;SDS011;63896;45.990;18.688;2023-09-19T01:54:00;13.70;;;8.55;;
75297;SDS011;63896;45.990;18.688;2023-09-19T01:57:25;16.42;;;8.73;;
75297;SDS011;63896;45.990;18.688;2023-09-19T02:00:32;16.27;;;8.60;;
75297;SDS011;63896;45.990;18.688;2023-09-19T02:03:38;16.20;;;9.45;;
75297;SDS011;63896;45.990;18.688;2023-09-19T02:06:43;19.13;;;9.43;;
75297;SDS011;63896;45.990;18.688;2023-09-19T02:09:47;17.25;;;9.02;;
75297;SDS011;63896;45.990;18.688;2023-09-19T02:12:50;15.75;;;9.15;;
75297;SDS011;63896;45.990;18.688;2023-09-19T02:15:53;17.92;;;9.52;;
75297;SDS011;63896;45.990;18.688;2023-09-19T02:18:56;20.20;;;9.52;;
75297;SDS011;63896;45.990;18.688;2023-09-19T02:21:59;12.37;;;8.53;;
75297;SDS011;63896;45.990;18.688;2023-09-19T02:25:05;15.05;;;9.15;;
75297;SDS011;63896;45.990;18.688;2023-09-19T02:28:11;15.25;;;9.45;;
75297;SDS011;63896;45.990;18.688;2023-09-19T02:31:14;17.65;;;9.68;;
75297;SDS011;63896;45.990;18.688;2023-09-19T02:34:19;15.82;;;9.23;;
75297;SDS011;63896;45.990;18.688;2023-09-19T02:37:22;13.97;;;9.90;;
75297;SDS011;63896;45.990;18.688;2023-09-19T02:40:25;14.70;;;9.93;;
75297;SDS011;63896;45.990;18.688;2023-09-19T02:43:28;17.42;;;9.65;;
75297;SDS011;63896;45.990;18.688;2023-09-19T02:46:31;15.57;;;9.63;;
75297;SDS011;63896;45.990;18.688;2023-09-19T02:49:34;17.50;;;9.63;;
75297;SDS011;63896;45.990;18.688;2023-09-19T02:52:38;18.53;;;9.97;;
75297;SDS011;63896;45.990;18.688;2023-09-19T02:55:49;14.32;;;9.55;;
75297;SDS011;63896;45.990;18.688;2023-09-19T02:58:52;16.45;;;9.27;;
75297;SDS011;63896;45.990;18.688;2023-09-19T03:01:56;14.10;;;9.82;;
75297;SDS011;63896;45.990;18.688;2023-09-19T03:05:00;17.55;;;10.77;;
75297;SDS011;63896;45.990;18.688;2023-09-19T03:08:06;19.17;;;10.57;;
75297;SDS011;63896;45.990;18.688;2023-09-19T03:11:10;22.02;;;10.60;;
75297;SDS011;63896;45.990;18.688;2023-09-19T03:14:15;16.63;;;10.00;;
75297;SDS011;63896;45.990;18.688;2023-09-19T03:17:20;20.50;;;11.00;;
75297;SDS011;63896;45.990;18.688;2023-09-19T03:20:24;17.73;;;10.32;;
75297;SDS011;63896;45.990;18.688;2023-09-19T03:23:28;14.07;;;10.30;;
75297;SDS011;63896;45.990;18.688;2023-09-19T03:26:31;18.27;;;10.57;;
75297;SDS011;63896;45.990;18.688;2023-09-19T03:29:35;20.65;;;10.52;;
75297;SDS011;63896;45.990;18.688;2023-09-19T03:32:46;19.42;;;10.32;;
75297;SDS011;63896;45.990;18.688;2023-09-19T03:35:53;16.23;;;10.57;;
75297;SDS011;63896;45.990;18.688;2023-09-19T03:38:57;16.50;;;10.90;;
75297;SDS011;63896;45.990;18.688;2023-09-19T03:42:02;15.88;;;10.13;;
75297;SDS011;63896;45.990;18.688;2023-09-19T03:45:07;18.60;;;11.20;;
75297;SDS011;63896;45.990;18.688;2023-09-19T03:48:17;16.75;;;10.82;;
75297;SDS011;63896;45.990;18.688;2023-09-19T03:51:21;20.92;;;10.85;;
75297;SDS011;63896;45.990;18.688;2023-09-19T03:54:24;17.43;;;11.20;;
75297;SDS011;63896;45.990;18.688;2023-09-19T03:57:26;15.93;;;11.20;;
75297;SDS011;63896;45.990;18.688;2023-09-19T04:00:30;15.63;;;10.57;;
75297;SDS011;63896;45.990;18.688;2023-09-19T04:03:34;16.15;;;9.98;;
75297;SDS011;63896;45.990;18.688;2023-09-19T04:06:48;21.63;;;11.32;;
75297;SDS011;63896;45.990;18.688;2023-09-19T04:09:50;21.07;;;11.43;;
75297;SDS011;63896;45.990;18.688;2023-09-19T04:12:56;15.85;;;11.05;;
75297;SDS011;63896;45.990;18.688;2023-09-19T04:15:59;20.40;;;11.25;;
75297;SDS011;63896;45.990;18.688;2023-09-19T04:19:02;23.20;;;11.02;;
75297;SDS011;63896;45.990;18.688;2023-09-19T04:22:06;19.48;;;11.88;;
75297;SDS011;63896;45.990;18.688;2023-09-19T04:25:09;31.33;;;11.83;;
75297;SDS011;63896;45.990;18.688;2023-09-19T04:28:12;25.83;;;11.75;;
75297;SDS011;63896;45.990;18.688;2023-09-19T04:31:15;26.95;;;11.70;;
75297;SDS011;63896;45.990;18.688;2023-09-19T04:34:19;22.70;;;11.98;;
75297;SDS011;63896;45.990;18.688;2023-09-19T04:37:21;19.30;;;11.02;;
75297;SDS011;63896;45.990;18.688;2023-09-19T04:40:24;19.80;;;11.93;;
75297;SDS011;63896;45.990;18.688;2023-09-19T04:43:29;24.17;;;11.45;;
75297;SDS011;63896;45.990;18.688;2023-09-19T04:46:32;25.77;;;11.80;;
75297;SDS011;63896;45.990;18.688;2023-09-19T04:49:38;18.23;;;11.55;;
75297;SDS011;63896;45.990;18.688;2023-09-19T04:52:42;19.73;;;11.38;;
75297;SDS011;63896;45.990;18.688;2023-09-19T04:55:51;19.17;;;11.47;;
75297;SDS011;63896;45.990;18.688;2023-09-19T04:58:55;24.98;;;11.90;;
75297;SDS011;63896;45.990;18.688;2023-09-19T05:01:58;20.02;;;11.07;;
75297;SDS011;63896;45.990;18.688;2023-09-19T05:05:01;15.45;;;11.00;;
75297;SDS011;63896;45.990;18.688;2023-09-19T05:08:04;18.63;;;10.45;;
75297;SDS011;63896;45.990;18.688;2023-09-19T05:11:08;16.43;;;11.17;;
75297;SDS011;63896;45.990;18.688;2023-09-19T05:14:11;20.13;;;11.45;;
75297;SDS011;63896;45.990;18.688;2023-09-19T05:17:14;17.90;;;11.27;;
75297;SDS011;63896;45.990;18.688;2023-09-19T05:20:19;20.05;;;10.55;;
75297;SDS011;63896;45.990;18.688;2023-09-19T05:23:40;16.15;;;10.52;;
75297;SDS011;63896;45.990;18.688;2023-09-19T05:26:44;13.90;;;10.37;;
75297;SDS011;63896;45.990;18.688;2023-09-19T05:29:48;18.65;;;10.80;;
75297;SDS011;63896;45.990;18.688;2023-09-19T05:32:53;20.35;;;11.57;;
75297;SDS011;63896;45.990;18.688;2023-09-19T05:35:57;23.27;;;11.18;;
75297;SDS011;63896;45.990;18.688;2023-09-19T05:39:00;14.00;;;10.68;;
75297;SDS011;63896;45.990;18.688;2023-09-19T05:42:03;19.40;;;11.10;;
75297;SDS011;63896;45.990;18.688;2023-09-19T05:45:16;22.13;;;10.73;;
75297;SDS011;63896;45.990;18.688;2023-09-19T05:48:27;18.27;;;10.65;;
75297;SDS011;63896;45.990;18.688;2023-09-19T05:51:30;13.43;;;10.13;;
75297;SDS011;63896;45.990;18.688;2023-09-19T05:54:33;18.25;;;10.70;;
75297;SDS011;63896;45.990;18.688;2023-09-19T05:57:37;30.00;;;13.87;;
75297;SDS011;63896;45.990;18.688;2023-09-19T06:00:45;37.42;;;19.35;;
75297;SDS011;63896;45.990;18.688;2023-09-19T06:03:50;38.67;;;22.17;;
75297;SDS011;63896;45.990;18.688;2023-09-19T06:06:55;35.40;;;19.40;;
75297;SDS011;63896;45.990;18.688;2023-09-19T06:09:58;27.95;;;15.65;;
75297;SDS011;63896;45.990;18.688;2023-09-19T06:13:04;19.80;;;11.37;;
75297;SDS011;63896;45.990;18.688;2023-09-19T06:16:08;18.42;;;11.73;;
75297;SDS011;63896;45.990;18.688;2023-09-19T06:19:12;19.17;;;10.38;;
75297;SDS011;63896;45.990;18.688;2023-09-19T06:22:15;25.05;;;11.45;;
75297;SDS011;63896;45.990;18.688;2023-09-19T06:25:21;22.00;;;11.95;;
75297;SDS011;63896;45.990;18.688;2023-09-19T06:28:25;18.67;;;11.57;;
75297;SDS011;63896;45.990;18.688;2023-09-19T06:31:30;22.33;;;10.93;;
75297;SDS011;63896;45.990;18.688;2023-09-19T06:34:33;20.35;;;10.57;;
75297;SDS011;63896;45.990;18.688;2023-09-19T06:37:37;26.17;;;12.27;;
75297;SDS011;63896;45.990;18.688;2023-09-19T06:40:43;29.60;;;11.98;;
75297;SDS011;63896;45.990;18.688;2023-09-19T06:43:46;25.83;;;11.53;;
75297;SDS011;63896;45.990;18.688;2023-09-19T06:46:55;21.73;;;10.90;;
75297;SDS011;63896;45.990;18.688;2023-09-19T06:49:58;30.80;;;10.75;;
75297;SDS011;63896;45.990;18.688;2023-09-19T06:53:01;21.40;;;10.25;;
75297;SDS011;63896;45.990;18.688;2023-09-19T06:56:06;26.40;;;9.85;;
75297;SDS011;63896;45.990;18.688;2023-09-19T06:59:09;30.07;;;9.90;;
75297;SDS011;63896;45.990;18.688;2023-09-19T07:02:12;25.27;;;9.65;;
75297;SDS011;63896;45.990;18.688;2023-09-19T07:05:16;20.30;;;9.40;;
75297;SDS011;63896;45.990;18.688;2023-09-19T07:08:20;22.85;;;9.65;;
75297;SDS011;63896;45.990;18.688;2023-09-19T07:11:23;18.95;;;9.25;;
75297;SDS011;63896;45.990;18.688;2023-09-19T07:14:27;19.87;;;9.60;;
75297;SDS011;63896;45.990;18.688;2023-09-19T07:17:30;27.90;;;9.80;;
75297;SDS011;63896;45.990;18.688;2023-09-19T07:20:35;27.02;;;10.52;;
75297;SDS011;63896;45.990;18.688;2023-09-19T07:23:38;20.17;;;7.40;;
75297;SDS011;63896;45.990;18.688;2023-09-19T07:26:42;12.90;;;4.70;;
75297;SDS011;63896;45.990;18.688;2023-09-19T07:29:48;14.13;;;4.93;;
75297;SDS011;63896;45.990;18.688;2023-09-19T07:32:54;14.38;;;4.13;;
75297;SDS011;63896;45.990;18.688;2023-09-19T07:36:00;9.93;;;3.60;;
75297;SDS011;63896;45.990;18.688;2023-09-19T07:39:13;18.50;;;4.20;;
75297;SDS011;63896;45.990;18.688;2023-09-19T07:42:25;9.75;;;2.78;;
75297;SDS011;63896;45.990;18.688;2023-09-19T07:45:29;11.63;;;2.27;;
75297;SDS011;63896;45.990;18.688;2023-09-19T07:48:35;9.45;;;2.20;;
75297;SDS011;63896;45.990;18.688;2023-09-19T07:51:40;8.85;;;1.70;;
75297;SDS011;63896;45.990;18.688;2023-09-19T07:54:44;5.47;;;1.08;;
75297;SDS011;63896;45.990;18.688;2023-09-19T07:57:53;6.88;;;0.88;;
75297;SDS011;63896;45.990;18.688;2023-09-19T08:00:56;9.57;;;0.90;;
75297;SDS011;63896;45.990;18.688;2023-09-19T08:03:59;4.53;;;0.70;;
75297;SDS011;63896;45.990;18.688;2023-09-19T08:07:02;6.30;;;0.57;;
75297;SDS011;63896;45.990;18.688;2023-09-19T08:10:07;6.90;;;0.45;;
75297;SDS011;63896;45.990;18.688;2023-09-19T08:13:15;13.98;;;0.82;;
75297;SDS011;63896;45.990;18.688;2023-09-19T08:16:20;2.53;;;0.60;;
75297;SDS011;63896;45.990;18.688;2023-09-19T08:19:28;7.15;;;1.15;;
75297;SDS011;63896;45.990;18.688;2023-09-19T08:22:37;5.47;;;0.45;;
75297;SDS011;63896;45.990;18.688;2023-09-19T08:25:40;4.00;;;0.50;;
75297;SDS011;63896;45.990;18.688;2023-09-19T08:28:43;4.60;;;0.13;;
75297;SDS011;63896;45.990;18.688;2023-09-19T08:31:46;5.07;;;0.80;;
75297;SDS011;63896;45.990;18.688;2023-09-19T08:34:52;1.55;;;0.38;;
75297;SDS011;63896;45.990;18.688;2023-09-19T08:37:55;8.18;;;0.40;;
75297;SDS011;63896;45.990;18.688;2023-09-19T08:40:59;5.30;;;0.50;;
75297;SDS011;63896;45.990;18.688;2023-09-19T08:44:03;3.90;;;0.30;;
75297;SDS011;63896;45.990;18.688;2023-09-19T08:47:10;6.80;;;0.50;;
75297;SDS011;63896;45.990;18.688;2023-09-19T08:53:51;8.82;;;0.75;;
75297;SDS011;63896;45.990;18.688;2023-09-19T08:57:03;11.65;;;0.60;;
75297;SDS011;63896;45.990;18.688;2023-09-19T09:00:14;3.38;;;0.38;;
75297;SDS011;63896;45.990;18.688;2023-09-19T09:03:20;4.57;;;0.40;;
75297;SDS011;63896;45.990;18.688;2023-09-19T09:06:24;1.85;;;0.50;;
75297;SDS011;63896;45.990;18.688;2023-09-19T09:09:30;1.92;;;0.45;;
75297;SDS011;63896;45.990;18.688;2023-09-19T09:12:36;0.57;;;0.25;;
75297;SDS011;63896;45.990;18.688;2023-09-19T09:15:45;4.05;;;0.40;;
75297;SDS011;63896;45.990;18.688;2023-09-19T09:18:49;4.23;;;0.53;;
75297;SDS011;63896;45.990;18.688;2023-09-19T09:22:04;2.20;;;0.70;;
75297;SDS011;63896;45.990;18.688;2023-09-19T09:25:09;3.38;;;0.80;;
75297;SDS011;63896;45.990;18.688;2023-09-19T09:28:12;3.35;;;0.63;;
75297;SDS011;63896;45.990;18.688;2023-09-19T09:31:23;2.03;;;0.68;;
75297;SDS011;63896;45.990;18.688;2023-09-19T09:34:33;7.33;;;0.60;;
75297;SDS011;63896;45.990;18.688;2023-09-19T09:41:22;1.63;;;0.52;;
75297;SDS011;63896;45.990;18.688;2023-09-19T09:44:40;17.35;;;1.52;;
75297;SDS011;63896;45.990;18.688;2023-09-19T09:47:46;17.10;;;1.10;;
75297;SDS011;63896;45.990;18.688;2023-09-19T09:50:58;8.47;;;0.77;;
75297;SDS011;63896;45.990;18.688;2023-09-19T09:54:16;8.75;;;1.08;;
75297;SDS011;63896;45.990;18.688;2023-09-19T09:57:23;24.77;;;1.65;;
75297;SDS011;63896;45.990;18.688;2023-09-19T10:00:28;8.65;;;0.82;;
75297;SDS011;63896;45.990;18.688;2023-09-19T10:03:44;3.80;;;0.90;;
75297;SDS011;63896;45.990;18.688;2023-09-19T10:06:50;7.23;;;0.73;;
75297;SDS011;63896;45.990;18.688;2023-09-19T10:09:56;7.85;;;0.85;;
75297;SDS011;63896;45.990;18.688;2023-09-19T10:13:07;3.72;;;0.60;;
75297;SDS011;63896;45.990;18.688;2023-09-19T10:16:14;18.00;;;1.45;;
75297;SDS011;63896;45.990;18.688;2023-09-19T10:19:28;56.08;;;2.78;;
75297;SDS011;63896;45.990;18.688;2023-09-19T10:22:36;30.47;;;2.00;;
75297;SDS011;63896;45.990;18.688;2023-09-19T10:25:43;17.98;;;0.93;;
75297;SDS011;63896;45.990;18.688;2023-09-19T10:28:49;13.57;;;1.00;;
75297;SDS011;63896;45.990;18.688;2023-09-19T10:31:54;22.50;;;1.70;;
75297;SDS011;63896;45.990;18.688;2023-09-19T10:35:01;7.70;;;0.90;;
75297;SDS011;63896;45.990;18.688;2023-09-19T10:38:07;24.27;;;1.83;;
75297;SDS011;63896;45.990;18.688;2023-09-19T10:41:14;38.40;;;18.90;;
75297;SDS011;63896;45.990;18.688;2023-09-19T10:44:21;14.98;;;7.68;;
75297;SDS011;63896;45.990;18.688;2023-09-19T10:47:31;16.83;;;6.75;;
75297;SDS011;63896;45.990;18.688;2023-09-19T10:50:52;10.85;;;4.25;;
75297;SDS011;63896;45.990;18.688;2023-09-19T10:54:10;3.77;;;1.57;;
75297;SDS011;63896;45.990;18.688;2023-09-19T10:57:18;4.78;;;1.00;;
75297;SDS011;63896;45.990;18.688;2023-09-19T11:00:30;2.15;;;0.82;;
75297;SDS011;63896;45.990;18.688;2023-09-19T11:03:50;2.33;;;1.00;;
75297;SDS011;63896;45.990;18.688;2023-09-19T11:07:56;4.22;;;1.13;;
75297;SDS011;63896;45.990;18.688;2023-09-19T11:11:00;27.73;;;1.47;;
75297;SDS011;63896;45.990;18.688;2023-09-19T11:14:16;13.27;;;1.00;;
75297;SDS011;63896;45.990;18.688;2023-09-19T11:17:51;10.82;;;1.00;;
75297;SDS011;63896;45.990;18.688;2023-09-19T11:21:52;34.33;;;1.42;;
75297;SDS011;63896;45.990;18.688;2023-09-19T11:24:57;2.20;;;0.50;;
75297;SDS011;63896;45.990;18.688;2023-09-19T11:28:50;7.23;;;0.90;;
75297;SDS011;63896;45.990;18.688;2023-09-19T11:36:12;4.25;;;0.95;;
75297;SDS011;63896;45.990;18.688;2023-09-19T11:39:30;4.47;;;0.75;;
75297;SDS011;63896;45.990;18.688;2023-09-19T11:42:48;6.35;;;0.75;;
75297;SDS011;63896;45.990;18.688;2023-09-19T11:49:07;2.17;;;0.50;;
75297;SDS011;63896;45.990;18.688;2023-09-19T11:52:21;2.03;;;0.75;;
75297;SDS011;63896;45.990;18.688;2023-09-19T11:55:28;2.17;;;0.80;;
75297;SDS011;63896;45.990;18.688;2023-09-19T11:58:35;3.55;;;0.98;;
75297;SDS011;63896;45.990;18.688;2023-09-19T12:01:42;1.03;;;0.90;;
75297;SDS011;63896;45.990;18.688;2023-09-19T12:05:00;1.02;;;0.70;;
75297;SDS011;63896;45.990;18.688;2023-09-19T12:08:04;0.57;;;0.40;;
75297;SDS011;63896;45.990;18.688;2023-09-19T12:11:13;3.72;;;0.52;;
75297;SDS011;63896;45.990;18.688;2023-09-19T12:14:25;3.63;;;0.70;;
75297;SDS011;63896;45.990;18.688;2023-09-19T12:17:35;3.73;;;0.60;;
75297;SDS011;63896;45.990;18.688;2023-09-19T12:20:51;1.02;;;0.50;;
75297;SDS011;63896;45.990;18.688;2023-09-19T12:24:04;0.70;;;0.47;;
75297;SDS011;63896;45.990;18.688;2023-09-19T12:27:15;0.85;;;0.32;;
75297;SDS011;63896;45.990;18.688;2023-09-19T12:30:19;0.85;;;0.50;;
75297;SDS011;63896;45.990;18.688;2023-09-19T12:33:29;2.07;;;0.60;;
75297;SDS011;63896;45.990;18.688;2023-09-19T12:36:32;5.97;;;0.60;;
75297;SDS011;63896;45.990;18.688;2023-09-19T12:39:40;9.57;;;0.80;;
75297;SDS011;63896;45.990;18.688;2023-09-19T12:42:51;1.90;;;0.50;;
75297;SDS011;63896;45.990;18.688;2023-09-19T12:45:57;1.13;;;0.50;;
75297;SDS011;63896;45.990;18.688;2023-09-19T12:49:17;12.10;;;0.93;;
75297;SDS011;63896;45.990;18.688;2023-09-19T12:52:21;24.83;;;1.67;;
75297;SDS011;63896;45.990;18.688;2023-09-19T12:55:24;17.55;;;1.38;;
75297;SDS011;63896;45.990;18.688;2023-09-19T12:58:31;1.10;;;0.45;;
75297;SDS011;63896;45.990;18.688;2023-09-19T13:01:35;4.05;;;0.60;;
75297;SDS011;63896;45.990;18.688;2023-09-19T13:04:42;23.33;;;1.27;;
75297;SDS011;63896;45.990;18.688;2023-09-19T13:07:55;12.45;;;1.05;;
75297;SDS011;63896;45.990;18.688;2023-09-19T13:17:23;3.85;;;0.40;;
75297;SDS011;63896;45.990;18.688;2023-09-19T13:20:26;1.40;;;0.60;;
75297;SDS011;63896;45.990;18.688;2023-09-19T13:23:34;2.08;;;0.55;;
75297;SDS011;63896;45.990;18.688;2023-09-19T13:26:39;2.42;;;0.50;;
75297;SDS011;63896;45.990;18.688;2023-09-19T13:29:42;3.20;;;0.60;;
75297;SDS011;63896;45.990;18.688;2023-09-19T13:32:45;1.95;;;0.73;;
75297;SDS011;63896;45.990;18.688;2023-09-19T13:35:49;1.23;;;0.50;;
75297;SDS011;63896;45.990;18.688;2023-09-19T13:38:52;1.88;;;0.57;;
75297;SDS011;63896;45.990;18.688;2023-09-19T13:41:55;2.08;;;0.75;;
75297;SDS011;63896;45.990;18.688;2023-09-19T13:44:58;3.20;;;0.80;;
75297;SDS011;63896;45.990;18.688;2023-09-19T13:48:01;4.47;;;1.00;;
75297;SDS011;63896;45.990;18.688;2023-09-19T13:51:04;2.27;;;0.90;;
75297;SDS011;63896;45.990;18.688;2023-09-19T13:54:07;2.33;;;0.70;;
75297;SDS011;63896;45.990;18.688;2023-09-19T13:57:10;2.83;;;0.85;;
75297;SDS011;63896;45.990;18.688;2023-09-19T14:00:13;1.33;;;0.63;;
75297;SDS011;63896;45.990;18.688;2023-09-19T14:03:21;3.97;;;1.00;;
75297;SDS011;63896;45.990;18.688;2023-09-19T14:06:24;2.03;;;0.90;;
75297;SDS011;63896;45.990;18.688;2023-09-19T14:09:27;3.70;;;0.73;;
75297;SDS011;63896;45.990;18.688;2023-09-19T14:12:30;3.50;;;0.40;;
75297;SDS011;63896;45.990;18.688;2023-09-19T14:15:36;1.92;;;0.82;;
75297;SDS011;63896;45.990;18.688;2023-09-19T14:18:40;4.60;;;0.60;;
75297;SDS011;63896;45.990;18.688;2023-09-19T14:21:44;1.53;;;0.70;;
75297;SDS011;63896;45.990;18.688;2023-09-19T14:24:47;3.17;;;0.70;;
75297;SDS011;63896;45.990;18.688;2023-09-19T14:27:50;2.45;;;0.50;;
75297;SDS011;63896;45.990;18.688;2023-09-19T14:30:53;1.52;;;0.43;;
75297;SDS011;63896;45.990;18.688;2023-09-19T14:33:57;3.30;;;0.70;;
75297;SDS011;63896;45.990;18.688;2023-09-19T14:37:01;7.60;;;0.57;;
75297;SDS011;63896;45.990;18.688;2023-09-19T14:40:05;5.30;;;0.60;;
75297;SDS011;63896;45.990;18.688;2023-09-19T14:43:11;4.03;;;0.40;;
75297;SDS011;63896;45.990;18.688;2023-09-19T14:46:14;1.45;;;0.50;;
75297;SDS011;63896;45.990;18.688;2023-09-19T14:49:17;7.95;;;0.70;;
75297;SDS011;63896;45.990;18.688;2023-09-19T14:52:21;2.67;;;0.73;;
75297;SDS011;63896;45.990;18.688;2023-09-19T14:55:24;5.85;;;0.60;;
75297;SDS011;63896;45.990;18.688;2023-09-19T14:58:30;5.25;;;0.52;;
75297;SDS011;63896;45.990;18.688;2023-09-19T15:01:35;0.90;;;0.30;;
75297;SDS011;63896;45.990;18.688;2023-09-19T15:04:38;4.72;;;0.43;;
75297;SDS011;63896;45.990;18.688;2023-09-19T15:07:43;2.97;;;0.70;;
75297;SDS011;63896;45.990;18.688;2023-09-19T15:10:50;1.20;;;0.50;;
75297;SDS011;63896;45.990;18.688;2023-09-19T15:13:55;1.52;;;0.47;;
75297;SDS011;63896;45.990;18.688;2023-09-19T15:16:59;3.08;;;0.60;;
75297;SDS011;63896;45.990;18.688;2023-09-19T15:20:02;4.07;;;0.60;;
75297;SDS011;63896;45.990;18.688;2023-09-19T15:23:08;2.53;;;0.60;;
75297;SDS011;63896;45.990;18.688;2023-09-19T15:26:12;1.50;;;0.73;;
75297;SDS011;63896;45.990;18.688;2023-09-19T15:29:16;6.07;;;0.77;;
75297;SDS011;63896;45.990;18.688;2023-09-19T15:32:20;6.22;;;0.68;;
75297;SDS011;63896;45.990;18.688;2023-09-19T15:35:24;4.22;;;0.80;;
75297;SDS011;63896;45.990;18.688;2023-09-19T15:38:27;3.63;;;1.07;;
75297;SDS011;63896;45.990;18.688;2023-09-19T15:41:48;4.00;;;0.90;;
75297;SDS011;63896;45.990;18.688;2023-09-19T15:44:53;3.05;;;1.10;;
75297;SDS011;63896;45.990;18.688;2023-09-19T15:47:57;3.75;;;1.10;;
75297;SDS011;63896;45.990;18.688;2023-09-19T15:51:03;1.55;;;0.60;;
75297;SDS011;63896;45.990;18.688;2023-09-19T15:54:07;1.87;;;0.70;;
75297;SDS011;63896;45.990;18.688;2023-09-19T15:57:12;4.07;;;1.00;;
75297;SDS011;63896;45.990;18.688;2023-09-19T16:00:16;6.05;;;0.50;;
75297;SDS011;63896;45.990;18.688;2023-09-19T16:03:21;1.30;;;0.70;;
75297;SDS011;63896;45.990;18.688;2023-09-19T16:06:27;3.47;;;0.90;;
75297;SDS011;63896;45.990;18.688;2023-09-19T16:09:31;3.33;;;1.10;;
75297;SDS011;63896;45.990;18.688;2023-09-19T16:12:33;2.95;;;1.15;;
75297;SDS011;63896;45.990;18.688;2023-09-19T16:15:41;5.57;;;1.00;;
75297;SDS011;63896;45.990;18.688;2023-09-19T16:18:46;5.10;;;1.20;;
75297;SDS011;63896;45.990;18.688;2023-09-19T16:21:53;7.18;;;1.52;;
75297;SDS011;63896;45.990;18.688;2023-09-19T16:24:57;3.80;;;1.40;;
75297;SDS011;63896;45.990;18.688;2023-09-19T16:28:00;4.28;;;1.65;;
75297;SDS011;63896;45.990;18.688;2023-09-19T16:31:03;7.95;;;1.80;;
75297;SDS011;63896;45.990;18.688;2023-09-19T16:34:22;5.20;;;2.40;;
75297;SDS011;63896;45.990;18.688;2023-09-19T16:37:25;4.32;;;2.05;;
75297;SDS011;63896;45.990;18.688;2023-09-19T16:40:28;3.73;;;1.87;;
75297;SDS011;63896;45.990;18.688;2023-09-19T16:43:31;8.30;;;2.03;;
75297;SDS011;63896;45.990;18.688;2023-09-19T16:46:38;5.97;;;1.88;;
75297;SDS011;63896;45.990;18.688;2023-09-19T16:49:41;8.73;;;2.47;;
75297;SDS011;63896;45.990;18.688;2023-09-19T16:52:44;6.78;;;1.95;;
75297;SDS011;63896;45.990;18.688;2023-09-19T16:55:47;4.83;;;1.80;;
75297;SDS011;63896;45.990;18.688;2023-09-19T16:58:50;5.72;;;1.98;;
75297;SDS011;63896;45.990;18.688;2023-09-19T17:01:54;7.03;;;2.80;;
75297;SDS011;63896;45.990;18.688;2023-09-19T17:04:59;8.40;;;2.40;;
75297;SDS011;63896;45.990;18.688;2023-09-19T17:08:06;11.05;;;2.33;;
75297;SDS011;63896;45.990;18.688;2023-09-19T17:11:25;6.30;;;2.93;;
75297;SDS011;63896;45.990;18.688;2023-09-19T17:14:28;6.55;;;2.78;;
75297;SDS011;63896;45.990;18.688;2023-09-19T17:17:32;10.38;;;2.55;;
75297;SDS011;63896;45.990;18.688;2023-09-19T17:20:41;5.55;;;2.40;;
75297;SDS011;63896;45.990;18.688;2023-09-19T17:23:44;9.75;;;3.05;;
75297;SDS011;63896;45.990;18.688;2023-09-19T17:26:47;9.57;;;2.80;;
75297;SDS011;63896;45.990;18.688;2023-09-19T17:29:50;9.77;;;2.60;;
75297;SDS011;63896;45.990;18.688;2023-09-19T17:32:53;8.43;;;2.55;;
75297;SDS011;63896;45.990;18.688;2023-09-19T17:36:06;6.22;;;2.50;;
75297;SDS011;63896;45.990;18.688;2023-09-19T17:39:09;9.18;;;2.65;;
75297;SDS011;63896;45.990;18.688;2023-09-19T17:42:16;9.03;;;2.50;;
75297;SDS011;63896;45.990;18.688;2023-09-19T17:45:20;6.55;;;2.22;;
75297;SDS011;63896;45.990;18.688;2023-09-19T17:48:23;7.43;;;2.03;;
75297;SDS011;63896;45.990;18.688;2023-09-19T17:51:27;4.35;;;1.83;;
75297;SDS011;63896;45.990;18.688;2023-09-19T17:54:30;4.72;;;1.63;;
75297;SDS011;63896;45.990;18.688;2023-09-19T17:57:34;5.23;;;1.83;;
75297;SDS011;63896;45.990;18.688;2023-09-19T18:00:38;5.22;;;1.92;;
75297;SDS011;63896;45.990;18.688;2023-09-19T18:03:42;3.50;;;1.40;;
75297;SDS011;63896;45.990;18.688;2023-09-19T18:06:46;6.22;;;2.40;;
75297;SDS011;63896;45.990;18.688;2023-09-19T18:09:51;8.65;;;2.00;;
75297;SDS011;63896;45.990;18.688;2023-09-19T18:12:54;5.73;;;1.83;;
75297;SDS011;63896;45.990;18.688;2023-09-19T18:15:57;6.10;;;2.80;;
75297;SDS011;63896;45.990;18.688;2023-09-19T18:19:01;9.75;;;3.03;;
75297;SDS011;63896;45.990;18.688;2023-09-19T18:22:05;8.43;;;2.80;;
75297;SDS011;63896;45.990;18.688;2023-09-19T18:25:09;4.90;;;2.15;;
75297;SDS011;63896;45.990;18.688;2023-09-19T18:28:14;5.47;;;2.40;;
75297;SDS011;63896;45.990;18.688;2023-09-19T18:31:17;7.90;;;3.00;;
75297;SDS011;63896;45.990;18.688;2023-09-19T18:34:20;11.82;;;2.67;;
75297;SDS011;63896;45.990;18.688;2023-09-19T18:37:24;7.70;;;2.90;;
75297;SDS011;63896;45.990;18.688;2023-09-19T18:40:27;7.47;;;3.05;;
75297;SDS011;63896;45.990;18.688;2023-09-19T18:43:30;6.20;;;2.10;;